Time;durP1;ratioP1;P1;durP2;ratioP2;P2;SDS_P1;SDS_P2;PMS_P1;PMS_P2;Temp;Humidity;BMP_temperature;BMP_pressure;BME280_temperature;BME280_humidity;BME280_pressure;Samples;Min_cycle;Max_cycle;Signal;HPM_P1;HPM_P2
2023/12/09 00:01:17;;;;;;;3.90;3.60;;;21.60;69.40;;;;;;6226893;28;95008;-62
2023/12/09 00:04:18;;;;;;;4.03;3.63;;;21.60;69.50;;;;;;6211894;28;94280;-62
2023/12/09 00:07:21;;;;;;;4.20;3.80;;;21.60;69.50;;;;;;6221943;28;94097;-62
2023/12/09 00:10:23;;;;;;;4.10;3.72;;;21.60;69.50;;;;;;6223982;28;94115;-62
2023/12/09 00:13:25;;;;;;;4.20;3.80;;;21.60;69.40;;;;;;6216277;28;93980;-62
2023/12/09 00:16:28;;;;;;;4.13;3.70;;;21.60;69.40;;;;;;6229275;28;94181;-62
2023/12/09 00:19:30;;;;;;;4.25;3.85;;;21.60;69.40;;;;;;6229421;28;94023;-62
2023/12/09 00:22:32;;;;;;;4.40;4.00;;;21.60;69.40;;;;;;6235972;28;93365;-62
2023/12/09 00:25:34;;;;;;;4.45;3.90;;;21.60;69.40;;;;;;6223084;28;93124;-62
2023/12/09 00:28:36;;;;;;;3.90;3.60;;;21.60;69.40;;;;;;6231590;28;94081;-63
2023/12/09 00:31:39;;;;;;;4.28;3.88;;;21.60;69.40;;;;;;6223674;28;95147;-62
2023/12/09 00:34:41;;;;;;;4.28;3.88;;;21.60;69.40;;;;;;6229335;28;94467;-62
2023/12/09 00:37:43;;;;;;;4.40;4.00;;;21.60;69.40;;;;;;6228434;28;92980;-62
2023/12/09 00:40:45;;;;;;;4.85;3.97;;;21.60;69.40;;;;;;6217677;28;94059;-62
2023/12/09 00:43:47;;;;;;;4.57;4.10;;;21.60;69.40;;;;;;6226745;28;94326;-62
2023/12/09 00:46:50;;;;;;;4.60;4.00;;;21.60;69.40;;;;;;6215240;28;94162;-63
2023/12/09 00:49:52;;;;;;;4.53;4.07;;;21.60;69.30;;;;;;6228024;28;94170;-63
2023/12/09 00:52:54;;;;;;;4.22;3.83;;;21.70;69.40;;;;;;6221241;28;93701;-62
2023/12/09 00:55:56;;;;;;;4.32;3.90;;;21.60;69.30;;;;;;6226206;28;94124;-62
2023/12/09 00:58:58;;;;;;;4.47;3.92;;;21.70;69.40;;;;;;6220681;28;94110;-62
2023/12/09 01:02:02;;;;;;;4.53;4.13;;;21.60;69.30;;;;;;6212492;28;93935;-63
2023/12/09 01:05:04;;;;;;;4.32;3.92;;;21.60;69.30;;;;;;6225874;28;94087;-63
2023/12/09 01:08:06;;;;;;;4.30;3.90;;;21.60;69.30;;;;;;6221344;28;94038;-63
2023/12/09 01:11:08;;;;;;;4.63;3.97;;;21.60;69.30;;;;;;6214673;28;94019;-62
2023/12/09 01:14:10;;;;;;;4.55;4.15;;;21.70;69.40;;;;;;6223010;28;94382;-62
2023/12/09 01:17:13;;;;;;;6.22;4.50;;;21.70;69.40;;;;;;6224578;28;94040;-62
2023/12/09 01:20:16;;;;;;;4.15;3.75;;;21.60;69.30;;;;;;6216031;28;94209;-63
2023/12/09 01:23:17;;;;;;;4.50;4.10;;;21.70;69.30;;;;;;6225208;28;93542;-62
2023/12/09 01:26:19;;;;;;;4.78;4.22;;;21.60;69.30;;;;;;6226764;28;94132;-62
2023/12/09 01:29:21;;;;;;;4.47;3.85;;;21.70;69.30;;;;;;6217965;28;94241;-63
2023/12/09 01:32:25;;;;;;;5.35;4.40;;;21.60;69.10;;;;;;6227065;28;94963;-62
2023/12/09 01:35:27;;;;;;;4.40;3.92;;;21.60;69.20;;;;;;6227944;28;94025;-62
2023/12/09 01:38:29;;;;;;;4.38;3.72;;;21.60;69.20;;;;;;6220111;28;94100;-62
2023/12/09 01:41:31;;;;;;;4.20;3.80;;;21.60;69.30;;;;;;6216755;28;94050;-63
2023/12/09 01:44:33;;;;;;;4.55;4.15;;;21.60;69.20;;;;;;6201718;28;94341;-62
2023/12/09 01:47:37;;;;;;;4.25;3.85;;;21.60;69.30;;;;;;6205212;28;94148;-62
2023/12/09 01:50:39;;;;;;;4.28;3.88;;;21.60;69.30;;;;;;6197789;28;94075;-62
2023/12/09 01:53:42;;;;;;;4.97;3.97;;;21.60;69.30;;;;;;6194147;28;93323;-62
2023/12/09 01:56:44;;;;;;;5.50;4.20;;;21.60;69.30;;;;;;6190150;28;94117;-62
2023/12/09 01:59:46;;;;;;;4.68;4.20;;;21.60;69.30;;;;;;6191812;28;94220;-62
2023/12/09 02:02:49;;;;;;;4.70;4.00;;;21.60;69.30;;;;;;6189459;28;94998;-62
2023/12/09 02:05:51;;;;;;;4.07;3.72;;;21.60;69.30;;;;;;6202321;28;94476;-63
2023/12/09 02:08:54;;;;;;;4.30;3.90;;;21.50;69.30;;;;;;6202751;28;94185;-62
2023/12/09 02:12:03;;;;;;;4.22;3.83;;;21.60;69.30;;;;;;6202659;28;94459;-62
2023/12/09 02:15:08;;;;;;;4.38;3.97;;;21.60;69.40;;;;;;6215115;28;94106;-62
2023/12/09 02:18:13;;;;;;;4.45;4.05;;;21.60;69.40;;;;;;6202576;28;94094;-62
2023/12/09 02:21:15;;;;;;;5.38;4.47;;;21.60;69.40;;;;;;6207951;28;94504;-62
2023/12/09 02:24:18;;;;;;;5.28;4.40;;;21.50;69.30;;;;;;6191109;28;93365;-62
2023/12/09 02:27:26;;;;;;;4.80;4.30;;;21.50;69.30;;;;;;6215628;28;94102;-62
2023/12/09 02:30:35;;;;;;;4.95;4.10;;;21.50;69.30;;;;;;6194637;28;94182;-62
2023/12/09 02:33:40;;;;;;;4.55;4.10;;;21.50;69.30;;;;;;6205803;28;95077;-62
2023/12/09 02:36:46;;;;;;;5.13;4.63;;;21.50;69.30;;;;;;6206539;28;94445;-62
2023/12/09 02:39:49;;;;;;;4.82;4.32;;;21.50;69.30;;;;;;6207129;28;94034;-62
2023/12/09 02:42:52;;;;;;;4.40;4.00;;;21.50;69.30;;;;;;6211423;28;94158;-62
2023/12/09 02:45:54;;;;;;;5.65;4.50;;;21.50;69.30;;;;;;6230742;28;93990;-62
2023/12/09 02:48:56;;;;;;;4.32;3.92;;;21.50;69.30;;;;;;6225607;28;94131;-62
2023/12/09 02:51:58;;;;;;;4.15;3.78;;;21.50;69.30;;;;;;6239751;28;94110;-62
2023/12/09 02:55:01;;;;;;;4.40;4.00;;;21.50;69.30;;;;;;6230074;28;92240;-62
2023/12/09 02:58:03;;;;;;;4.80;4.20;;;21.50;69.30;;;;;;6210765;28;94070;-63
2023/12/09 03:01:05;;;;;;;4.78;4.35;;;21.50;69.40;;;;;;6209876;28;94510;-62
2023/12/09 03:04:07;;;;;;;4.38;3.97;;;21.50;69.30;;;;;;6228932;28;95030;-62
2023/12/09 03:07:09;;;;;;;4.60;4.20;;;21.50;69.40;;;;;;6211125;28;94051;-62
2023/12/09 03:10:12;;;;;;;4.97;4.40;;;21.50;69.40;;;;;;6213676;28;94450;-62
2023/12/09 03:13:14;;;;;;;4.50;4.10;;;21.60;69.60;;;;;;6225673;28;94159;-63
2023/12/09 03:16:16;;;;;;;4.43;4.03;;;21.50;69.40;;;;;;6209219;28;94069;-63
2023/12/09 03:19:18;;;;;;;4.68;4.22;;;21.50;69.40;;;;;;6214474;28;94047;-62
2023/12/09 03:22:20;;;;;;;4.13;3.72;;;21.60;69.40;;;;;;6219390;28;94102;-63
2023/12/09 03:25:23;;;;;;;4.60;4.18;;;21.60;69.40;;;;;;6242980;28;93412;-63
2023/12/09 03:28:25;;;;;;;4.63;4.15;;;21.60;69.40;;;;;;6231221;28;94182;-63
2023/12/09 03:31:28;;;;;;;4.43;4.00;;;21.60;69.40;;;;;;6242300;28;94029;-62
2023/12/09 03:34:29;;;;;;;4.53;4.13;;;21.60;69.40;;;;;;6228648;28;95202;-62
2023/12/09 03:37:32;;;;;;;5.03;4.53;;;21.60;69.40;;;;;;6230613;28;94000;-62
2023/12/09 03:40:35;;;;;;;6.13;4.78;;;21.60;69.40;;;;;;6228878;28;94221;-62
2023/12/09 03:43:37;;;;;;;5.72;4.90;;;21.60;69.30;;;;;;6220211;28;94167;-62
2023/12/09 03:46:39;;;;;;;5.10;4.60;;;21.60;69.30;;;;;;6229477;28;94069;-62
2023/12/09 03:49:41;;;;;;;5.35;4.85;;;21.60;69.30;;;;;;6230312;28;94128;-62
2023/12/09 03:52:43;;;;;;;5.57;5.05;;;21.60;69.30;;;;;;6228080;28;94007;-63
2023/12/09 03:55:46;;;;;;;5.45;4.95;;;21.60;69.30;;;;;;6229329;28;92241;-62
2023/12/09 03:58:48;;;;;;;6.18;5.47;;;21.60;69.30;;;;;;6229766;28;94428;-62
2023/12/09 04:01:51;;;;;;;5.35;4.85;;;21.60;69.30;;;;;;6228248;28;93272;-62
2023/12/09 04:04:53;;;;;;;6.72;5.40;;;21.60;69.30;;;;;;6241006;28;95051;-62
2023/12/09 04:07:55;;;;;;;6.60;5.30;;;21.60;69.30;;;;;;6238618;28;94126;-63
2023/12/09 04:10:58;;;;;;;5.80;5.22;;;21.60;69.30;;;;;;6229974;28;94063;-62
2023/12/09 04:14:00;;;;;;;5.97;5.38;;;21.60;69.30;;;;;;6228255;28;94121;-62
2023/12/09 04:17:02;;;;;;;6.75;6.15;;;21.60;69.30;;;;;;6228457;28;94255;-62
2023/12/09 04:20:05;;;;;;;6.30;5.70;;;21.60;69.20;;;;;;6218193;28;93844;-63
2023/12/09 04:23:08;;;;;;;6.30;5.70;;;21.60;69.30;;;;;;6227531;28;94244;-63
2023/12/09 04:26:12;;;;;;;7.50;6.57;;;21.60;69.20;;;;;;6232090;28;93846;-62
2023/12/09 04:29:14;;;;;;;8.23;6.50;;;21.60;69.20;;;;;;6241186;28;94083;-62
2023/12/09 04:32:16;;;;;;;7.07;6.38;;;21.60;69.10;;;;;;6241287;28;94132;-62
2023/12/09 04:35:18;;;;;;;6.90;6.18;;;21.70;69.10;;;;;;6227231;28;95632;-62
2023/12/09 04:38:20;;;;;;;7.00;6.30;;;21.60;69.10;;;;;;6229490;28;94131;-63
2023/12/09 04:41:23;;;;;;;7.05;6.35;;;21.70;69.30;;;;;;6228731;28;94104;-62
2023/12/09 04:44:25;;;;;;;7.20;6.50;;;21.60;69.10;;;;;;6225046;28;94077;-62
2023/12/09 04:47:27;;;;;;;7.72;6.93;;;21.60;69.10;;;;;;6211421;28;94167;-62
2023/12/09 04:50:29;;;;;;;7.97;6.65;;;21.60;69.00;;;;;;6228855;28;94329;-62
2023/12/09 04:53:31;;;;;;;8.27;7.38;;;21.60;69.10;;;;;;6230875;28;94076;-62
2023/12/09 04:56:34;;;;;;;8.15;6.82;;;21.70;69.10;;;;;;6231233;28;93335;-62
2023/12/09 04:59:36;;;;;;;8.68;7.63;;;21.70;69.10;;;;;;6219286;28;94109;-62
2023/12/09 05:02:38;;;;;;;7.78;6.97;;;21.60;69.00;;;;;;6221626;28;94308;-62
2023/12/09 05:05:40;;;;;;;7.60;6.90;;;21.60;69.00;;;;;;6215663;28;95039;-62
2023/12/09 05:08:42;;;;;;;7.53;6.82;;;21.60;70.00;;;;;;6222676;28;94487;-62
2023/12/09 05:11:46;;;;;;;8.48;7.57;;;21.70;69.10;;;;;;6208905;28;94295;-62
2023/12/09 05:14:48;;;;;;;7.82;7.03;;;21.60;69.00;;;;;;6215916;28;94429;-62
2023/12/09 05:17:50;;;;;;;8.38;7.55;;;21.70;69.10;;;;;;6217162;28;93989;-62
2023/12/09 05:20:52;;;;;;;8.05;7.25;;;21.60;69.10;;;;;;6234978;28;92997;-62
2023/12/09 05:23:54;;;;;;;7.88;7.07;;;21.70;69.10;;;;;;6217337;28;94194;-62
2023/12/09 05:26:58;;;;;;;7.90;7.10;;;21.60;69.10;;;;;;6223570;28;93308;-62
2023/12/09 05:30:00;;;;;;;8.57;7.68;;;21.70;69.10;;;;;;6217847;28;94035;-62
2023/12/09 05:33:03;;;;;;;8.38;7.47;;;21.60;69.10;;;;;;6228017;28;94122;-62
2023/12/09 05:36:05;;;;;;;8.23;7.45;;;21.60;69.10;;;;;;6227356;28;95149;-62
2023/12/09 05:39:08;;;;;;;8.15;7.45;;;21.60;69.10;;;;;;6232102;28;94285;-62
2023/12/09 05:42:11;;;;;;;8.50;7.57;;;21.60;69.10;;;;;;6243666;28;93920;-63
2023/12/09 05:45:13;;;;;;;9.02;7.82;;;21.60;69.10;;;;;;6225953;28;94131;-63
2023/12/09 05:48:16;;;;;;;8.23;7.35;;;21.60;69.10;;;;;;6227222;28;93727;-61
2023/12/09 05:51:18;;;;;;;8.88;7.97;;;21.60;69.10;;;;;;6216827;28;94116;-62
2023/12/09 05:54:20;;;;;;;8.93;8.02;;;21.60;69.20;;;;;;6227294;28;94065;-62
2023/12/09 05:57:24;;;;;;;8.35;7.55;;;21.60;69.30;;;;;;6227809;28;93350;-62
2023/12/09 06:00:26;;;;;;;8.23;7.43;;;21.60;69.30;;;;;;6226854;28;94249;-62
2023/12/09 06:03:28;;;;;;;8.70;7.80;;;21.60;69.40;;;;;;6235533;28;94120;-62
2023/12/09 06:06:30;;;;;;;8.15;7.35;;;21.60;69.40;;;;;;6237511;28;94993;-63
2023/12/09 06:09:32;;;;;;;8.88;7.97;;;21.50;69.40;;;;;;6230838;28;94510;-63
2023/12/09 06:12:35;;;;;;;8.68;7.65;;;21.50;69.50;;;;;;6231834;28;93303;-62
2023/12/09 06:15:37;;;;;;;8.93;7.55;;;21.50;69.50;;;;;;6231311;28;94053;-62
2023/12/09 06:18:39;;;;;;;8.35;7.55;;;21.50;69.60;;;;;;6224855;28;93339;-62
2023/12/09 06:21:41;;;;;;;8.18;7.32;;;21.50;69.60;;;;;;6231264;28;94113;-62
2023/12/09 06:24:45;;;;;;;8.35;7.53;;;21.50;69.50;;;;;;6245727;28;94295;-62
2023/12/09 06:27:48;;;;;;;8.15;7.35;;;21.50;69.50;;;;;;6221382;28;93512;-62
2023/12/09 06:30:50;;;;;;;8.18;7.38;;;21.50;69.50;;;;;;6242534;28;94186;-62
2023/12/09 06:33:52;;;;;;;7.75;7.05;;;21.50;69.50;;;;;;6232033;28;94082;-62
2023/12/09 06:36:54;;;;;;;7.95;7.15;;;21.50;69.50;;;;;;6230941;28;95030;-62
2023/12/09 06:39:56;;;;;;;8.45;7.65;;;21.50;69.60;;;;;;6231750;28;94096;-62
2023/12/09 06:42:59;;;;;;;8.15;7.35;;;21.50;69.60;;;;;;6222246;28;94012;-62
2023/12/09 06:46:01;;;;;;;7.80;7.00;;;21.50;69.50;;;;;;6207258;28;94031;-62
2023/12/09 06:49:03;;;;;;;8.70;7.68;;;21.50;69.50;;;;;;6230037;28;94099;-62
2023/12/09 06:52:05;;;;;;;8.07;7.28;;;21.50;69.60;;;;;;6250702;28;94038;-62
2023/12/09 06:55:09;;;;;;;8.70;7.80;;;21.50;69.60;;;;;;6230739;28;94158;-62
2023/12/09 06:58:13;;;;;;;8.25;7.32;;;21.50;69.60;;;;;;6232376;28;93466;-62
2023/12/09 07:01:21;;;;;;;8.63;7.55;;;21.50;69.60;;;;;;6231416;28;94616;-62
2023/12/09 07:04:23;;;;;;;8.38;7.57;;;21.50;69.60;;;;;;6219497;28;94058;-62
2023/12/09 07:07:25;;;;;;;8.20;7.40;;;21.50;70.50;;;;;;6241437;28;95620;-62
2023/12/09 07:10:27;;;;;;;8.57;7.78;;;21.50;69.60;;;;;;6239412;28;94537;-62
2023/12/09 07:13:31;;;;;;;8.73;7.82;;;21.50;69.60;;;;;;6230370;28;94036;-62
2023/12/09 07:16:33;;;;;;;7.93;7.22;;;21.50;69.60;;;;;;6205839;28;94154;-62
2023/12/09 07:19:35;;;;;;;8.07;7.28;;;21.50;69.60;;;;;;6194596;28;94314;-62
2023/12/09 07:22:37;;;;;;;8.77;7.57;;;21.50;69.50;;;;;;6204894;28;94107;-62
2023/12/09 07:25:39;;;;;;;7.88;7.10;;;21.50;69.50;;;;;;6221849;28;94142;-62
2023/12/09 07:28:42;;;;;;;7.70;7.00;;;21.50;69.50;;;;;;6231723;28;93469;-63
2023/12/09 07:31:44;;;;;;;8.20;7.40;;;21.50;69.60;;;;;;6230701;28;94018;-62
2023/12/09 07:34:46;;;;;;;7.88;7.10;;;21.50;69.50;;;;;;6230466;28;93976;-62
2023/12/09 07:37:48;;;;;;;8.07;7.28;;;21.50;69.40;;;;;;6229562;28;95053;-62
2023/12/09 07:40:50;;;;;;;7.90;7.10;;;21.60;69.50;;;;;;6229685;28;93765;-62
2023/12/09 07:43:53;;;;;;;8.32;7.43;;;21.60;69.40;;;;;;6244834;28;94195;-62
2023/12/09 07:46:55;;;;;;;7.90;6.97;;;21.60;69.40;;;;;;6239919;28;94055;-62
2023/12/09 07:49:57;;;;;;;8.32;7.43;;;21.60;69.40;;;;;;6229578;28;94263;-62
2023/12/09 07:52:59;;;;;;;7.97;7.18;;;21.60;69.30;;;;;;6230104;28;95026;-62
2023/12/09 07:56:01;;;;;;;7.85;7.15;;;21.60;69.30;;;;;;6237906;28;94129;-62
2023/12/09 07:59:05;;;;;;;7.88;7.07;;;21.60;69.30;;;;;;6240494;28;93885;-62
2023/12/09 08:02:07;;;;;;;7.82;6.93;;;21.60;69.40;;;;;;6232462;28;94109;-62
2023/12/09 08:05:09;;;;;;;7.97;7.10;;;21.60;69.30;;;;;;6227062;28;94048;-62
2023/12/09 08:08:11;;;;;;;7.68;6.88;;;21.60;69.40;;;;;;6230688;28;94999;-62
2023/12/09 08:11:13;;;;;;;9.63;7.07;;;21.70;69.40;;;;;;6235704;28;94312;-62
2023/12/09 08:14:16;;;;;;;8.93;7.07;;;21.70;69.40;;;;;;6227725;28;93942;-62
2023/12/09 08:17:18;;;;;;;10.30;7.28;;;21.70;69.90;;;;;;6230087;28;94068;-62
2023/12/09 08:20:20;;;;;;;9.75;7.47;;;21.70;70.30;;;;;;6226682;28;93951;-62
2023/12/09 08:23:22;;;;;;;9.68;7.70;;;21.70;70.60;;;;;;6216647;28;94126;-62
2023/12/09 08:26:24;;;;;;;11.63;7.65;;;21.70;70.60;;;;;;6215303;28;94186;-62
2023/12/09 08:29:27;;;;;;;10.30;7.07;;;21.70;70.90;;;;;;6230545;28;93375;-62
2023/12/09 08:32:29;;;;;;;8.52;6.70;;;21.70;71.10;;;;;;6224765;28;94077;-62
2023/12/09 08:35:31;;;;;;;10.10;7.75;;;21.70;71.10;;;;;;6228417;28;94151;-62
2023/12/09 08:38:33;;;;;;;10.35;7.30;;;21.70;71.50;;;;;;6219361;28;95047;-63
2023/12/09 08:41:35;;;;;;;11.73;7.18;;;21.70;71.50;;;;;;6226293;28;94111;-62
2023/12/09 08:44:38;;;;;;;9.25;6.85;;;21.70;71.60;;;;;;6218624;28;94103;-62
2023/12/09 08:47:41;;;;;;;10.43;6.95;;;21.70;71.50;;;;;;6228313;28;94060;-62
2023/12/09 08:50:43;;;;;;;9.88;6.97;;;21.70;71.50;;;;;;6224708;28;94146;-62
2023/12/09 08:53:45;;;;;;;8.27;6.85;;;21.70;71.60;;;;;;6229320;28;94267;-62
2023/12/09 08:56:46;;;;;;;7.30;6.53;;;21.70;71.60;;;;;;6232325;28;94056;-62
2023/12/09 08:59:50;;;;;;;8.10;6.55;;;21.70;71.60;;;;;;6235350;28;93409;-62
2023/12/09 09:02:55;;;;;;;10.43;7.00;;;21.70;71.60;;;;;;6226134;28;94113;-63
2023/12/09 09:05:57;;;;;;;8.40;7.00;;;21.70;71.70;;;;;;6244125;28;94150;-63
2023/12/09 09:08:59;;;;;;;7.70;6.72;;;21.70;71.60;;;;;;6225975;28;94982;-62
2023/12/09 09:12:00;;;;;;;9.32;6.97;;;21.70;71.70;;;;;;6233573;28;94433;-62
2023/12/09 09:15:04;;;;;;;7.65;6.85;;;21.70;71.70;;;;;;6228135;28;94218;-62
2023/12/09 09:18:07;;;;;;;8.63;6.82;;;21.70;71.70;;;;;;6223193;28;94194;-62
2023/12/09 09:21:09;;;;;;;9.32;7.20;;;21.70;71.70;;;;;;6230380;28;94358;-62
2023/12/09 09:24:11;;;;;;;8.82;7.10;;;21.70;71.80;;;;;;6229504;28;94218;-62
2023/12/09 09:27:13;;;;;;;7.80;7.00;;;21.70;71.70;;;;;;6242596;28;94085;-62
2023/12/09 09:30:17;;;;;;;8.95;7.10;;;21.70;71.70;;;;;;6228126;28;93425;-61
2023/12/09 09:33:19;;;;;;;7.55;6.57;;;21.70;71.70;;;;;;6226622;28;94280;-62
2023/12/09 09:36:22;;;;;;;8.30;6.47;;;21.80;71.80;;;;;;6232552;28;94541;-62
2023/12/09 09:39:24;;;;;;;7.72;6.88;;;21.70;71.70;;;;;;6225503;28;95218;-62
2023/12/09 09:42:34;;;;;;;8.23;7.10;;;21.70;71.80;;;;;;6229998;28;94220;-62
2023/12/09 09:45:38;;;;;;;7.30;6.60;;;21.70;71.80;;;;;;6233108;28;94123;-62
2023/12/09 09:48:43;;;;;;;7.57;6.78;;;21.70;71.80;;;;;;6220301;28;94110;-62
2023/12/09 09:51:51;;;;;;;8.18;6.75;;;21.70;71.80;;;;;;6227801;28;94187;-62
2023/12/09 09:54:54;;;;;;;7.72;6.93;;;21.70;71.80;;;;;;6215281;28;94412;-62
2023/12/09 09:57:56;;;;;;;6.78;6.13;;;21.70;71.80;;;;;;6212476;28;93037;-62
2023/12/09 10:01:00;;;;;;;8.23;6.68;;;21.70;71.80;;;;;;6220150;28;93292;-62
2023/12/09 10:04:03;;;;;;;7.55;6.75;;;21.70;71.80;;;;;;6204764;28;94130;-62
2023/12/09 10:07:05;;;;;;;8.30;6.97;;;21.70;71.80;;;;;;6202462;28;94122;-62
2023/12/09 10:10:08;;;;;;;9.38;7.85;;;21.70;71.80;;;;;;6216266;28;94096;-63
2023/12/09 10:13:10;;;;;;;9.25;7.88;;;21.70;71.80;;;;;;6218615;28;94046;-62
2023/12/09 10:16:14;;;;;;;10.75;8.43;;;21.70;71.80;;;;;;6223311;28;94123;-62
2023/12/09 10:19:16;;;;;;;12.40;9.05;;;21.70;71.80;;;;;;6228072;28;93034;-62
2023/12/09 10:22:19;;;;;;;12.68;10.02;;;21.70;71.70;;;;;;6227533;28;94066;-62
2023/12/09 10:25:22;;;;;;;12.63;10.30;;;21.80;71.70;;;;;;6226113;28;94399;-62
2023/12/09 10:28:25;;;;;;;13.50;11.25;;;21.80;71.70;;;;;;6210867;28;93129;-62
2023/12/09 10:31:29;;;;;;;16.45;12.48;;;21.80;71.70;;;;;;6223337;28;93386;-62
2023/12/09 10:34:31;;;;;;;17.05;12.65;;;21.80;71.60;;;;;;6221025;28;94143;-62
2023/12/09 10:37:33;;;;;;;18.83;13.70;;;21.80;71.60;;;;;;6213254;28;94108;-62
2023/12/09 10:40:35;;;;;;;20.02;14.38;;;21.80;71.60;;;;;;6220376;28;94807;-62
2023/12/09 10:43:38;;;;;;;20.35;15.48;;;21.80;71.60;;;;;;6231406;28;94031;-62
2023/12/09 10:46:41;;;;;;;22.77;15.60;;;21.80;71.60;;;;;;6223863;28;94093;-62
2023/12/09 10:49:43;;;;;;;23.67;16.95;;;21.80;71.60;;;;;;6228832;28;94694;-62
2023/12/09 10:52:45;;;;;;;26.67;18.20;;;21.80;71.60;;;;;;6229610;28;94211;-63
2023/12/09 10:55:48;;;;;;;24.85;18.52;;;21.80;71.50;;;;;;6224202;28;94154;-62
2023/12/09 10:58:52;;;;;;;26.52;18.65;;;21.80;71.50;;;;;;6211370;28;94096;-62
2023/12/09 11:01:56;;;;;;;28.00;20.42;;;21.80;71.50;;;;;;6228251;28;93336;-62
2023/12/09 11:04:59;;;;;;;28.70;20.73;;;21.80;71.50;;;;;;6229706;28;94285;-62
2023/12/09 11:08:02;;;;;;;31.10;21.60;;;21.80;71.40;;;;;;6240539;28;94244;-63
2023/12/09 11:11:05;;;;;;;32.42;22.48;;;21.80;71.40;;;;;;6227463;28;94970;-62
2023/12/09 11:14:08;;;;;;;33.00;23.50;;;21.80;71.40;;;;;;6221358;28;94119;-62
2023/12/09 11:17:35;;;;;;;32.83;22.60;;;21.80;71.40;;;;;;6224825;28;94056;-62
2023/12/09 11:20:40;;;;;;;34.38;24.35;;;21.80;71.30;;;;;;6223802;28;94169;-62
2023/12/09 11:23:45;;;;;;;34.08;24.02;;;21.90;71.40;;;;;;6231770;28;94166;-63
2023/12/09 11:26:48;;;;;;;34.17;24.20;;;21.90;71.40;;;;;;6229411;28;94101;-62
2023/12/09 11:29:50;;;;;;;36.85;25.30;;;21.80;71.30;;;;;;6234984;28;94090;-63
2023/12/09 11:32:53;;;;;;;35.05;25.33;;;21.90;71.30;;;;;;6248678;28;93334;-62
2023/12/09 11:35:57;;;;;;;35.35;25.60;;;21.90;71.30;;;;;;6241903;28;94070;-62
2023/12/09 11:38:59;;;;;;;37.13;25.92;;;21.90;71.30;;;;;;6232509;28;94089;-62
2023/12/09 11:42:02;;;;;;;39.13;27.25;;;21.80;71.20;;;;;;6223525;28;95000;-62
2023/12/09 11:45:05;;;;;;;37.75;26.10;;;21.90;71.10;;;;;;6206638;28;94054;-62
2023/12/09 11:48:10;;;;;;;38.75;26.27;;;21.90;71.10;;;;;;6228936;28;94322;-62
2023/12/09 11:51:13;;;;;;;37.63;26.60;;;21.90;71.10;;;;;;6228456;28;94096;-62
2023/12/09 11:54:15;;;;;;;37.70;27.05;;;21.90;71.10;;;;;;6220768;28;94138;-63
2023/12/09 11:57:16;;;;;;;37.95;26.00;;;21.90;71.00;;;;;;6210836;28;94437;-62
2023/12/09 12:00:19;;;;;;;36.47;26.15;;;21.90;71.00;;;;;;6221656;28;94348;-62
2023/12/09 12:03:22;;;;;;;40.00;26.13;;;21.90;71.00;;;;;;6221225;28;93363;-63
2023/12/09 12:06:24;;;;;;;39.33;27.50;;;22.00;71.00;;;;;;6220790;28;94215;-63
2023/12/09 12:09:27;;;;;;;37.67;26.90;;;21.90;71.00;;;;;;6220000;28;94198;-62
2023/12/09 12:12:29;;;;;;;40.42;27.50;;;21.90;70.90;;;;;;6228118;28;94953;-62
2023/12/09 12:15:31;;;;;;;36.90;27.52;;;21.90;70.90;;;;;;6227737;28;94060;-62
2023/12/09 12:18:36;;;;;;;39.78;28.35;;;21.90;70.90;;;;;;6225283;28;94137;-62
2023/12/09 12:21:38;;;;;;;37.42;26.88;;;21.90;70.80;;;;;;6226955;28;94076;-63
2023/12/09 12:24:43;;;;;;;36.63;27.65;;;21.90;70.90;;;;;;6235865;28;94133;-62
2023/12/09 12:27:45;;;;;;;39.45;26.90;;;21.90;70.80;;;;;;6233018;28;94088;-62
2023/12/09 12:30:51;;;;;;;40.70;28.58;;;21.90;70.80;;;;;;6226604;28;94044;-62
2023/12/09 12:33:55;;;;;;;40.72;27.90;;;21.90;70.80;;;;;;6227800;28;93362;-62
2023/12/09 12:36:57;;;;;;;37.42;27.13;;;21.90;70.80;;;;;;6221778;28;94103;-62
2023/12/09 12:39:59;;;;;;;39.08;28.50;;;21.90;70.80;;;;;;6212064;28;94987;-62
2023/12/09 12:43:04;;;;;;;36.15;26.92;;;21.90;70.80;;;;;;6249677;28;95058;-63
2023/12/09 12:46:06;;;;;;;37.25;27.35;;;21.90;70.80;;;;;;6222854;28;94072;-62
2023/12/09 12:49:10;;;;;;;37.30;27.88;;;21.90;70.80;;;;;;6210031;28;94058;-62
2023/12/09 12:52:12;;;;;;;38.92;28.25;;;21.90;70.80;;;;;;6227620;28;94387;-62
2023/12/09 12:55:14;;;;;;;37.58;27.75;;;22.00;70.80;;;;;;6214941;28;94161;-62
2023/12/09 12:58:16;;;;;;;38.38;27.42;;;22.00;70.80;;;;;;6227527;28;94094;-63
2023/12/09 13:01:18;;;;;;;39.83;29.15;;;22.00;70.90;;;;;;6227649;28;94080;-62
2023/12/09 13:04:22;;;;;;;38.75;27.35;;;22.00;70.80;;;;;;6229211;28;93565;-62
2023/12/09 13:07:24;;;;;;;37.50;27.20;;;21.90;70.80;;;;;;6227634;28;94080;-62
2023/12/09 13:10:26;;;;;;;38.30;28.02;;;21.90;70.80;;;;;;6217581;28;94078;-63
2023/12/09 13:13:28;;;;;;;35.42;26.30;;;21.90;70.80;;;;;;6202808;28;95062;-62
2023/12/09 13:16:30;;;;;;;33.53;26.80;;;21.90;70.80;;;;;;6220584;28;94128;-63
2023/12/09 13:19:33;;;;;;;38.80;28.08;;;21.90;70.80;;;;;;6219448;28;92979;-62
2023/12/09 13:22:35;;;;;;;37.83;27.15;;;21.90;70.80;;;;;;6226955;28;94139;-63
2023/12/09 13:25:37;;;;;;;34.97;26.35;;;22.00;70.80;;;;;;6219330;28;94022;-62
2023/12/09 13:28:40;;;;;;;35.70;27.58;;;22.00;70.90;;;;;;6220816;28;93003;-62
2023/12/09 13:31:43;;;;;;;34.35;26.42;;;21.90;70.80;;;;;;6218515;28;94047;-62
2023/12/09 13:34:46;;;;;;;34.40;26.80;;;21.90;70.80;;;;;;6238797;28;93368;-62
2023/12/09 13:37:48;;;;;;;35.35;26.20;;;21.90;70.80;;;;;;6227706;28;94092;-62
2023/12/09 13:40:50;;;;;;;35.28;26.42;;;21.90;70.80;;;;;;6201893;28;94140;-63
2023/12/09 13:43:52;;;;;;;34.45;26.40;;;21.90;70.80;;;;;;6220489;28;95404;-62
2023/12/09 13:46:54;;;;;;;35.78;26.88;;;21.90;70.80;;;;;;6223837;28;94008;-62
2023/12/09 13:49:57;;;;;;;33.58;25.90;;;21.90;70.90;;;;;;6225742;28;94013;-62
2023/12/09 13:53:00;;;;;;;34.00;25.95;;;22.00;70.90;;;;;;6229483;28;93982;-62
2023/12/09 13:56:02;;;;;;;32.90;26.27;;;21.90;70.80;;;;;;6233969;28;94397;-63
2023/12/09 13:59:05;;;;;;;33.08;25.58;;;21.90;70.90;;;;;;6223783;28;93919;-63
2023/12/09 14:02:08;;;;;;;33.13;26.35;;;21.90;70.80;;;;;;6215142;28;94363;-63
2023/12/09 14:05:13;;;;;;;34.80;26.55;;;21.90;70.80;;;;;;6233155;28;93292;-62
2023/12/09 14:08:16;;;;;;;34.28;26.30;;;21.90;70.80;;;;;;6225466;28;94124;-62
2023/12/09 14:11:19;;;;;;;33.63;26.52;;;21.90;70.80;;;;;;6225108;28;96041;-62
2023/12/09 14:14:21;;;;;;;33.78;25.73;;;22.00;70.80;;;;;;6222545;28;95271;-62
2023/12/09 14:17:23;;;;;;;32.22;26.13;;;21.90;70.80;;;;;;6218885;28;94250;-62
2023/12/09 14:20:27;;;;;;;30.77;24.55;;;22.00;71.80;;;;;;6227934;28;94239;-62
2023/12/09 14:23:29;;;;;;;32.05;25.25;;;21.90;70.80;;;;;;6216872;28;94066;-63
2023/12/09 14:26:31;;;;;;;31.88;25.45;;;21.90;70.80;;;;;;6212378;28;94080;-62
2023/12/09 14:29:33;;;;;;;32.15;25.70;;;22.00;70.80;;;;;;6230077;28;94160;-62
2023/12/09 14:32:37;;;;;;;31.48;24.80;;;21.90;70.70;;;;;;6226632;28;94103;-62
2023/12/09 14:35:40;;;;;;;30.52;24.52;;;21.90;70.70;;;;;;6231330;28;93964;-62
2023/12/09 14:38:43;;;;;;;29.83;24.13;;;21.90;70.80;;;;;;6228253;28;94121;-63
2023/12/09 14:41:45;;;;;;;30.45;24.55;;;21.90;70.60;;;;;;6227551;28;94226;-63
2023/12/09 14:44:47;;;;;;;30.67;24.30;;;21.90;70.60;;;;;;6230267;28;94589;-62
2023/12/09 14:47:49;;;;;;;28.27;24.55;;;22.00;70.70;;;;;;6223516;28;94139;-62
2023/12/09 14:50:53;;;;;;;29.90;23.23;;;22.00;70.70;;;;;;6224830;28;94027;-63
2023/12/09 14:53:55;;;;;;;29.73;24.02;;;22.00;70.70;;;;;;6227174;28;94436;-63
2023/12/09 14:56:57;;;;;;;29.17;23.23;;;21.90;70.60;;;;;;6219140;28;94232;-62
2023/12/09 15:00:00;;;;;;;27.60;23.23;;;21.90;70.60;;;;;;6221803;28;94078;-62
2023/12/09 15:03:02;;;;;;;28.45;24.00;;;22.00;70.60;;;;;;6218852;28;94371;-62
2023/12/09 15:06:06;;;;;;;29.60;23.50;;;21.90;70.60;;;;;;6221380;28;93353;-62
2023/12/09 15:09:09;;;;;;;29.38;23.27;;;22.00;70.60;;;;;;6234340;28;94357;-63
2023/12/09 15:12:11;;;;;;;27.38;23.05;;;22.00;70.60;;;;;;6228813;28;94276;-64
2023/12/09 15:15:14;;;;;;;27.20;21.67;;;22.00;70.60;;;;;;6216906;28;95394;-62
2023/12/09 15:18:16;;;;;;;29.70;23.08;;;22.00;70.60;;;;;;6233878;28;94694;-63
2023/12/09 15:21:20;;;;;;;27.63;22.33;;;22.00;70.50;;;;;;6223139;28;94155;-63
2023/12/09 15:24:22;;;;;;;28.67;22.75;;;22.00;70.60;;;;;;6213016;28;94058;-63
2023/12/09 15:27:24;;;;;;;26.40;21.55;;;22.00;70.50;;;;;;6229645;28;94018;-63
2023/12/09 15:30:26;;;;;;;24.25;21.30;;;22.00;70.50;;;;;;6232274;28;92935;-62
2023/12/09 15:33:28;;;;;;;25.98;22.27;;;22.00;70.50;;;;;;6224292;28;94392;-62
2023/12/09 15:36:32;;;;;;;24.92;21.40;;;22.00;70.40;;;;;;6224250;28;93376;-63
2023/12/09 15:39:39;;;;;;;25.38;21.30;;;22.00;70.30;;;;;;6232559;28;94464;-62
2023/12/09 15:42:41;;;;;;;24.85;21.27;;;22.00;70.40;;;;;;6233272;28;93104;-63